KLOM

Wings Field Airport

Philadelphia, Pennsylvania, USA
METAR KLOM 151835Z AUTO 21009G15KT 10SM CLR 15/04 A2965 RMK AO1
Observed Flight Rules
Feb-15 @ 18:35 UTC (30 minutes ago) Visual Flight Rules
Wind Visibility Clouds
210° at 9 knots
 Gusting to 15 knots
10 miles
  • Clear skies
Temperatures Readings
Current 15°C / 59°F
Dewpoint 4°C / 39°F
Humidity 48%
Altimeter 29.65" Hg
Pressure 1004.02 hPa
Elevation 92
METAR KLOM 151835Z AUTO 21009G15KT 10SM CLR 15/04 A2965 RMK AO1
Observed Flight Rules
Feb-15 @ 18:35 UTC
(30 minutes ago)
VFR
Wind Visibility
210° at 9 knots
 Gusting to 15 knots
10 miles
Clouds
  • Clear skies
Temperature Dewpoint
15°C / 59°F 4°C / 39°F
Humidity Altimeter Pressure
48% 29.65" Hg 1004.02 hPa